createdAt,value
2023-01-28T00:01:51.780Z,99116.16
2023-01-28T00:04:21.205Z,99111.31
2023-01-28T00:06:49.224Z,99104.63
2023-01-28T00:09:17.415Z,99117.09
2023-01-28T00:11:45.477Z,99117.38
2023-01-28T00:14:13.636Z,99122.59
2023-01-28T00:16:41.659Z,99118.66
2023-01-28T00:19:09.826Z,99122.66
2023-01-28T00:21:39.293Z,99114.13
2023-01-28T00:24:09.505Z,99107.19
2023-01-28T00:26:37.886Z,99109.16
2023-01-28T00:29:06.552Z,99120.19
2023-01-28T00:31:35.402Z,99115.19
2023-01-28T00:34:03.494Z,99114.72
2023-01-28T00:36:31.660Z,99117.69
2023-01-28T00:39:01.055Z,99112.03
2023-01-28T00:41:29.921Z,99110.50
2023-01-28T00:43:59.948Z,99115.38
2023-01-28T00:46:28.331Z,99114.72
2023-01-28T00:48:56.680Z,99117.53
2023-01-28T00:51:24.930Z,99111.31
2023-01-28T00:53:53.030Z,99111.47
2023-01-28T00:56:22.734Z,99108.97
2023-01-28T00:58:50.880Z,99101.53
2023-01-28T01:01:20.215Z,99098.56
2023-01-28T01:03:54.387Z,99102.50
2023-01-28T01:06:23.513Z,99109.25
2023-01-28T01:08:51.674Z,99106.16
2023-01-28T01:11:19.821Z,99116.00
2023-01-28T01:13:52.407Z,99110.50
2023-01-28T01:16:20.437Z,99118.81
2023-01-28T01:18:52.195Z,99117.28
2023-01-28T01:21:23.856Z,99112.47
2023-01-28T01:23:52.568Z,99111.78
2023-01-28T01:26:20.648Z,99108.19
2023-01-28T01:28:49.108Z,99117.00
2023-01-28T01:31:19.962Z,99117.09
2023-01-28T01:33:48.949Z,99119.06
2023-01-28T01:36:18.509Z,99120.06
2023-01-28T01:38:46.734Z,99120.34
2023-01-28T01:41:23.043Z,99124.41
2023-01-28T01:43:54.643Z,99128.03
2023-01-28T01:46:27.279Z,99128.72
2023-01-28T01:48:56.897Z,99133.22
2023-01-28T01:51:27.821Z,99119.84
2023-01-28T01:53:57.649Z,99120.91
2023-01-28T01:56:28.699Z,99122.72
2023-01-28T01:58:58.377Z,99121.75
2023-01-28T02:01:30.214Z,99118.19
2023-01-28T02:04:04.276Z,99113.91
2023-01-28T02:06:33.190Z,99123.66
2023-01-28T02:09:01.316Z,99113.53
2023-01-28T02:11:31.892Z,99119.31
2023-01-28T02:14:03.333Z,99117.78
2023-01-28T02:16:33.365Z,99119.00
2023-01-28T02:19:01.495Z,99117.94
2023-01-28T02:21:44.943Z,99104.63
2023-01-28T02:24:27.947Z,99121.19
2023-01-28T02:27:09.872Z,99127.34
2023-01-28T02:29:44.735Z,99127.03
2023-01-28T02:32:18.777Z,99129.41
2023-01-28T02:34:48.774Z,99121.81
2023-01-28T02:37:18.831Z,99128.88
2023-01-28T02:39:49.853Z,99128.63
2023-01-28T02:42:20.310Z,99125.75
2023-01-28T02:44:50.149Z,99132.75
2023-01-28T02:47:36.745Z,99136.94
2023-01-28T02:50:07.533Z,99134.59
2023-01-28T02:53:00.842Z,99133.22
2023-01-28T02:55:33.124Z,99143.31
2023-01-28T02:58:06.236Z,99139.59
2023-01-28T03:00:42.578Z,99145.28
2023-01-28T03:03:16.529Z,99141.78
2023-01-28T03:06:03.318Z,99143.19
2023-01-28T03:08:55.118Z,99146.84
2023-01-28T03:11:40.984Z,99143.34
2023-01-28T03:14:28.257Z,99137.84
2023-01-28T03:17:16.721Z,99147.31
2023-01-28T03:20:02.618Z,99144.78
2023-01-28T03:22:51.582Z,99147.50
2023-01-28T03:25:39.367Z,99142.97
2023-01-28T03:28:28.740Z,99143.41
2023-01-28T03:31:21.836Z,99152.25
2023-01-28T03:34:13.375Z,99155.75
2023-01-28T03:36:53.452Z,99155.34
2023-01-28T03:39:33.767Z,99160.47
2023-01-28T03:42:03.952Z,99151.00
2023-01-28T03:44:51.853Z,99152.69
2023-01-28T03:47:21.784Z,99152.34
2023-01-28T03:49:53.057Z,99150.50
2023-01-28T03:52:23.949Z,99158.53
2023-01-28T03:54:53.006Z,99150.72
2023-01-28T03:57:22.166Z,99150.66
2023-01-28T03:59:50.748Z,99157.31
2023-01-28T04:02:19.457Z,99158.88
2023-01-28T04:04:50.118Z,99155.41
2023-01-28T04:07:22.282Z,99166.47
2023-01-28T04:10:19.766Z,99158.91
2023-01-28T04:12:55.864Z,99160.28
2023-01-28T04:15:26.020Z,99155.28
2023-01-28T04:17:55.740Z,99163.69
2023-01-28T04:20:30.331Z,99173.06
2023-01-28T04:23:02.214Z,99169.44
2023-01-28T04:25:31.296Z,99170.81
2023-01-28T04:27:59.598Z,99177.63
2023-01-28T04:30:30.328Z,99161.25
2023-01-28T04:33:14.364Z,99185.28
2023-01-28T04:36:00.074Z,99184.59
2023-01-28T04:38:48.469Z,99192.19
2023-01-28T04:41:27.319Z,99196.31
2023-01-28T04:43:57.946Z,99198.88
2023-01-28T04:46:40.597Z,99204.78
2023-01-28T04:49:22.184Z,99217.09
2023-01-28T04:52:09.033Z,99215.72
2023-01-28T04:55:01.198Z,99222.28
2023-01-28T04:57:30.175Z,99218.09
2023-01-28T04:59:58.246Z,99219.91
2023-01-28T05:02:26.522Z,99224.09
2023-01-28T05:04:54.746Z,99231.38
2023-01-28T05:07:41.659Z,99232.38
2023-01-28T05:10:11.787Z,99235.56
2023-01-28T05:12:40.116Z,99242.03
2023-01-28T05:15:10.021Z,99237.00
2023-01-28T05:17:38.206Z,99235.22
2023-01-28T05:20:07.061Z,99241.25
2023-01-28T05:22:37.244Z,99246.28
2023-01-28T05:25:21.025Z,99258.31
2023-01-28T05:27:52.329Z,99260.03
2023-01-28T05:30:20.934Z,99258.31
2023-01-28T05:32:49.473Z,99273.19
2023-01-28T05:35:21.710Z,99275.00
2023-01-28T05:37:49.851Z,99278.22
2023-01-28T05:40:19.287Z,99284.09
2023-01-28T05:42:48.749Z,99279.94
2023-01-28T05:45:37.059Z,99289.41
2023-01-28T05:48:09.188Z,99282.84
2023-01-28T05:50:51.165Z,99281.06
2023-01-28T05:53:30.330Z,99283.56
2023-01-28T05:55:58.528Z,99283.25
2023-01-28T05:58:30.872Z,99287.19
2023-01-28T06:01:00.664Z,99288.00
2023-01-28T06:03:36.999Z,99295.97
2023-01-28T06:06:05.372Z,99301.03
2023-01-28T06:08:33.420Z,99311.00
2023-01-28T06:11:01.759Z,99308.59
2023-01-28T06:13:35.279Z,99306.19
2023-01-28T06:16:16.106Z,99317.69
2023-01-28T06:19:01.108Z,99318.09
2023-01-28T06:21:30.313Z,99326.44
2023-01-28T06:23:59.621Z,99331.09
2023-01-28T06:26:27.741Z,99329.44
2023-01-28T06:28:57.165Z,99337.41
2023-01-28T06:31:25.214Z,99340.06
2023-01-28T06:33:53.575Z,99342.59
2023-01-28T06:36:21.711Z,99345.81
2023-01-28T06:38:49.820Z,99352.13
2023-01-28T06:41:17.907Z,99362.75
2023-01-28T06:43:45.927Z,99360.81
2023-01-28T06:46:15.332Z,99355.38
2023-01-28T06:48:43.415Z,99358.41
2023-01-28T06:51:11.474Z,99363.88
2023-01-28T06:53:39.514Z,99367.06
2023-01-28T06:56:08.551Z,99357.16
2023-01-28T06:58:36.593Z,99370.16
2023-01-28T07:01:04.727Z,99358.22
2023-01-28T07:03:34.184Z,99362.16
2023-01-28T07:06:02.244Z,99361.22
2023-01-28T07:08:30.633Z,99366.78
2023-01-28T07:10:58.633Z,99372.22
2023-01-28T07:13:26.674Z,99367.19
2023-01-28T07:15:54.754Z,99372.78
2023-01-28T07:18:22.779Z,99371.41
2023-01-28T07:20:52.132Z,99369.16
2023-01-28T07:23:20.180Z,99370.44
2023-01-28T07:25:48.255Z,99367.19
2023-01-28T07:28:21.248Z,99370.41
2023-01-28T07:30:52.483Z,99377.00
2023-01-28T07:33:21.855Z,99375.59
2023-01-28T07:35:50.107Z,99375.59
2023-01-28T07:38:19.523Z,99373.06
2023-01-28T07:40:47.834Z,99380.34
2023-01-28T07:43:15.837Z,99375.59
2023-01-28T07:45:43.995Z,99375.88
2023-01-28T07:48:13.414Z,99377.41
2023-01-28T07:50:42.008Z,99380.16
2023-01-28T07:53:10.960Z,99387.63
2023-01-28T07:55:40.647Z,99382.69
2023-01-28T07:58:09.188Z,99386.59
2023-01-28T08:00:38.124Z,99385.91
2023-01-28T08:03:07.855Z,99382.09
2023-01-28T08:05:40.976Z,99371.59
2023-01-28T08:08:09.580Z,99379.44
2023-01-28T08:10:37.958Z,99379.84
2023-01-28T08:13:08.078Z,99386.47
2023-01-28T08:15:36.871Z,99392.88
2023-01-28T08:18:05.980Z,99396.00
2023-01-28T08:20:33.999Z,99399.47
2023-01-28T08:23:08.490Z,99397.88
2023-01-28T08:25:37.155Z,99384.75
2023-01-28T08:28:05.711Z,99384.50
2023-01-28T08:30:35.597Z,99395.41
2023-01-28T08:33:03.821Z,99397.75
2023-01-28T08:35:31.987Z,99392.00
2023-01-28T08:38:00.354Z,99390.88
2023-01-28T08:40:28.705Z,99396.75
2023-01-28T08:42:59.291Z,99391.41
2023-01-28T08:45:28.499Z,99393.41
2023-01-28T08:47:58.832Z,99389.53
2023-01-28T08:50:28.131Z,99394.78
2023-01-28T08:52:57.225Z,99397.06
2023-01-28T08:55:25.562Z,99398.72
2023-01-28T08:57:54.097Z,99397.88
2023-01-28T09:00:22.927Z,99398.13
2023-01-28T09:02:52.024Z,99401.78
2023-01-28T09:05:22.003Z,99398.91
2023-01-28T09:07:50.917Z,99408.19
2023-01-28T09:10:20.420Z,99411.72
2023-01-28T09:12:48.697Z,99414.31
2023-01-28T09:15:16.812Z,99409.34
2023-01-28T09:17:44.890Z,99414.28
2023-01-28T09:20:14.059Z,99414.47
2023-01-28T09:22:46.001Z,99415.72
2023-01-28T09:25:14.268Z,99416.72
2023-01-28T09:27:42.406Z,99418.31
2023-01-28T09:30:11.395Z,99414.41
2023-01-28T09:32:39.361Z,99411.44
2023-01-28T09:35:07.724Z,99410.75
2023-01-28T09:37:35.763Z,99428.91
2023-01-28T09:40:05.821Z,99427.06
2023-01-28T09:42:40.603Z,99426.44
2023-01-28T09:45:13.318Z,99433.72
2023-01-28T09:47:43.064Z,99437.19
2023-01-28T09:50:15.900Z,99431.56
2023-01-28T09:52:45.145Z,99437.84
2023-01-28T09:55:21.036Z,99437.22
2023-01-28T09:57:52.108Z,99436.88
2023-01-28T10:00:22.644Z,99444.91
2023-01-28T10:02:55.940Z,99440.56
2023-01-28T10:05:27.955Z,99438.03
2023-01-28T10:08:00.107Z,99436.94
2023-01-28T10:10:31.463Z,99437.25
2023-01-28T10:13:06.430Z,99431.75
2023-01-28T10:15:45.774Z,99431.63
2023-01-28T10:18:17.965Z,99428.06
2023-01-28T10:20:48.976Z,99430.09
2023-01-28T10:23:20.993Z,99423.09
2023-01-28T10:25:50.372Z,99424.59
2023-01-28T10:28:20.393Z,99420.25
2023-01-28T10:30:48.859Z,99416.47
2023-01-28T10:33:21.338Z,99420.16
2023-01-28T10:35:50.361Z,99412.56
2023-01-28T10:38:21.654Z,99409.91
2023-01-28T10:40:53.340Z,99410.50
2023-01-28T10:43:23.828Z,99410.75
2023-01-28T10:45:56.849Z,99402.97
2023-01-28T10:48:25.960Z,99413.59
2023-01-28T10:50:56.992Z,99414.34
2023-01-28T10:53:34.659Z,99405.28
2023-01-28T10:56:05.346Z,99411.88
2023-01-28T10:58:35.661Z,99421.50
2023-01-28T11:01:05.823Z,99416.66
2023-01-28T11:03:44.271Z,99413.81
2023-01-28T11:06:24.335Z,99414.09
2023-01-28T11:08:52.346Z,99395.22
2023-01-28T11:11:25.347Z,99414.25
2023-01-28T11:13:54.773Z,99411.53
2023-01-28T11:16:22.969Z,99407.69
2023-01-28T11:18:53.316Z,99402.72
2023-01-28T11:21:22.593Z,99408.00
2023-01-28T11:23:52.418Z,99413.97
2023-01-28T11:26:22.693Z,99417.06
2023-01-28T11:28:53.432Z,99413.84
2023-01-28T11:31:23.391Z,99422.91
2023-01-28T11:33:52.964Z,99416.06
2023-01-28T11:36:22.018Z,99421.88
2023-01-28T11:38:51.076Z,99422.38
2023-01-28T11:41:19.947Z,99421.38
2023-01-28T11:43:55.087Z,99421.06
2023-01-28T11:46:44.602Z,99433.88
2023-01-28T11:49:18.074Z,99427.22
2023-01-28T11:51:49.225Z,99423.91
2023-01-28T11:54:26.685Z,99428.28
2023-01-28T11:57:01.522Z,99435.56
2023-01-28T11:59:49.770Z,99443.16
2023-01-28T12:02:27.809Z,99433.59
2023-01-28T12:05:04.836Z,99440.13
2023-01-28T12:07:38.428Z,99446.06
2023-01-28T12:10:12.812Z,99445.78
2023-01-28T12:13:05.397Z,99445.66
2023-01-28T12:15:48.185Z,99453.56
2023-01-28T12:18:23.957Z,99452.38
2023-01-28T12:20:56.975Z,99455.94
2023-01-28T12:23:33.011Z,99457.28
2023-01-28T12:26:07.414Z,99464.06
2023-01-28T12:28:44.739Z,99465.13
2023-01-28T12:31:27.779Z,99461.69
2023-01-28T12:34:06.384Z,99467.53
2023-01-28T12:36:44.136Z,99465.75
2023-01-28T12:39:20.091Z,99462.00
2023-01-28T12:41:49.664Z,99458.88
2023-01-28T12:44:22.764Z,99457.84
2023-01-28T12:46:55.721Z,99455.03
2023-01-28T12:49:26.869Z,99450.03
2023-01-28T12:52:00.056Z,99462.38
2023-01-28T12:54:30.617Z,99452.00
2023-01-28T12:56:59.259Z,99458.72
2023-01-28T12:59:30.310Z,99449.34
2023-01-28T13:02:15.559Z,99447.25
2023-01-28T13:04:52.484Z,99443.19
2023-01-28T13:07:24.979Z,99446.69
2023-01-28T13:09:55.563Z,99449.50
2023-01-28T13:12:26.654Z,99450.84
2023-01-28T13:14:56.332Z,99450.28
2023-01-28T13:17:28.916Z,99442.41
2023-01-28T13:19:58.801Z,99442.34
2023-01-28T13:22:28.487Z,99437.31
2023-01-28T13:24:56.927Z,99423.91
2023-01-28T13:27:25.976Z,99428.22
2023-01-28T13:30:04.789Z,99418.53
2023-01-28T13:32:34.453Z,99418.38
2023-01-28T13:35:05.993Z,99419.63
2023-01-28T13:37:34.991Z,99414.88
2023-01-28T13:40:05.218Z,99426.06
2023-01-28T13:42:33.483Z,99416.28
2023-01-28T13:45:25.549Z,99416.00
2023-01-28T13:47:54.993Z,99412.91
2023-01-28T13:50:25.607Z,99410.31
2023-01-28T13:52:57.496Z,99409.19
2023-01-28T13:55:42.745Z,99412.97
2023-01-28T13:58:26.520Z,99416.06
2023-01-28T14:01:11.285Z,99422.75
2023-01-28T14:03:48.414Z,99426.16
2023-01-28T14:06:40.723Z,99413.91
2023-01-28T14:09:24.040Z,99417.28
2023-01-28T14:12:05.763Z,99417.88
2023-01-28T14:14:48.672Z,99420.38
2023-01-28T14:17:23.312Z,99418.41
2023-01-28T14:19:52.087Z,99420.81
2023-01-28T14:22:21.093Z,99428.88
2023-01-28T14:24:49.409Z,99431.63
2023-01-28T14:27:22.485Z,99439.44
2023-01-28T14:29:57.907Z,99433.50
2023-01-28T14:32:28.556Z,99413.72
2023-01-28T14:34:57.779Z,99438.44
2023-01-28T14:37:29.142Z,99447.44
2023-01-28T14:39:59.461Z,99448.44
2023-01-28T14:42:31.065Z,99445.50
2023-01-28T14:45:08.213Z,99440.56
2023-01-28T14:47:43.306Z,99440.47
2023-01-28T14:50:26.886Z,99441.34
2023-01-28T14:53:13.837Z,99453.78
2023-01-28T14:55:49.461Z,99456.25
2023-01-28T14:58:21.799Z,99459.16
2023-01-28T15:00:56.619Z,99451.28
2023-01-28T15:03:25.881Z,99421.81
2023-01-28T15:06:11.937Z,99462.06
2023-01-28T15:08:40.470Z,99459.63
2023-01-28T15:11:10.228Z,99462.41
2023-01-28T15:13:41.712Z,99462.59
2023-01-28T15:16:17.444Z,99460.00
2023-01-28T15:18:46.318Z,99475.22
2023-01-28T15:21:14.778Z,99476.19
2023-01-28T15:23:43.759Z,99471.75
2023-01-28T15:26:14.658Z,99475.50
2023-01-28T15:28:45.253Z,99475.34
2023-01-28T15:31:20.611Z,99478.34
2023-01-28T15:34:00.385Z,99477.38
2023-01-28T15:36:28.849Z,99480.53
2023-01-28T15:38:57.510Z,99482.66
2023-01-28T15:41:28.987Z,99487.44
2023-01-28T15:43:58.423Z,99488.53
2023-01-28T15:46:26.672Z,99482.09
2023-01-28T15:48:58.132Z,99480.41
2023-01-28T15:51:30.941Z,99492.66
2023-01-28T15:54:00.656Z,99503.00
2023-01-28T15:56:29.936Z,99500.06
2023-01-28T15:59:10.567Z,99492.19
2023-01-28T16:01:38.631Z,99503.53
2023-01-28T16:04:09.534Z,99501.03
2023-01-28T16:06:38.913Z,99498.28
2023-01-28T16:09:08.459Z,99493.88
2023-01-28T16:11:41.366Z,99500.88
2023-01-28T16:14:21.858Z,99494.31
2023-01-28T16:16:50.409Z,99503.06
2023-01-28T16:19:26.607Z,99498.38
2023-01-28T16:21:54.743Z,99511.88
2023-01-28T16:24:23.992Z,99498.06
2023-01-28T16:26:59.102Z,99505.44
2023-01-28T16:29:30.809Z,99505.72
2023-01-28T16:32:00.522Z,99499.81
2023-01-28T16:34:30.981Z,99510.28
2023-01-28T16:37:01.674Z,99508.25
2023-01-28T16:39:32.840Z,99504.59
2023-01-28T16:42:03.008Z,99501.66
2023-01-28T16:44:32.399Z,99505.44
2023-01-28T16:47:00.501Z,99505.81
2023-01-28T16:49:28.828Z,99516.31
2023-01-28T16:51:56.879Z,99501.22
2023-01-28T16:54:25.051Z,99503.31
2023-01-28T16:56:53.089Z,99500.13
2023-01-28T16:59:21.089Z,99508.84
2023-01-28T17:01:51.117Z,99510.22
2023-01-28T17:04:19.284Z,99508.25
2023-01-28T17:06:47.400Z,99504.50
2023-01-28T17:09:17.657Z,99508.16
2023-01-28T17:11:45.729Z,99511.69
2023-01-28T17:14:13.806Z,99514.88
2023-01-28T17:16:41.857Z,99523.97
2023-01-28T17:19:11.204Z,99517.84
2023-01-28T17:21:39.264Z,99521.31
2023-01-28T17:24:07.788Z,99521.59
2023-01-28T17:26:37.015Z,99523.59
2023-01-28T17:29:05.745Z,99528.78
2023-01-28T17:31:33.968Z,99519.50
2023-01-28T17:34:02.539Z,99529.88
2023-01-28T17:36:32.080Z,99535.50
2023-01-28T17:39:00.107Z,99538.88
2023-01-28T17:41:28.112Z,99531.59
2023-01-28T17:43:59.720Z,99532.97
2023-01-28T17:46:27.863Z,99532.00
2023-01-28T17:48:55.967Z,99539.72
2023-01-28T17:51:24.065Z,99543.91
2023-01-28T17:53:53.955Z,99543.22
2023-01-28T17:56:23.401Z,99554.69
2023-01-28T17:58:51.872Z,99553.72
2023-01-28T18:01:20.416Z,99546.97
2023-01-28T18:03:48.919Z,99546.44
2023-01-28T18:06:17.248Z,99552.03
2023-01-28T18:08:45.557Z,99546.44
2023-01-28T18:11:16.113Z,99548.69
2023-01-28T18:13:44.173Z,99553.16
2023-01-28T18:16:14.979Z,99553.72
2023-01-28T18:18:43.211Z,99565.91
2023-01-28T18:21:20.553Z,99558.34
2023-01-28T18:23:48.787Z,99560.31
2023-01-28T18:26:20.201Z,99558.47
2023-01-28T18:28:48.352Z,99564.06
2023-01-28T18:31:16.590Z,99574.00
2023-01-28T18:33:44.672Z,99576.94
2023-01-28T18:36:12.940Z,99590.16
2023-01-28T18:38:40.995Z,99590.97
2023-01-28T18:41:09.180Z,99590.38
2023-01-28T18:43:38.835Z,99586.91
2023-01-28T18:46:11.216Z,99585.34
2023-01-28T18:48:39.256Z,99584.22
2023-01-28T18:51:27.755Z,99583.81
2023-01-28T18:53:58.833Z,99588.56
2023-01-28T18:56:29.973Z,99579.75
2023-01-28T18:59:00.493Z,99580.59
2023-01-28T19:01:28.841Z,99585.91
2023-01-28T19:03:57.440Z,99583.13
2023-01-28T19:06:26.266Z,99590.66
2023-01-28T19:08:54.814Z,99586.50
2023-01-28T19:11:23.242Z,99582.81
2023-01-28T19:13:54.258Z,99585.88
2023-01-28T19:16:24.081Z,99565.00
2023-01-28T19:18:53.289Z,99590.91
2023-01-28T19:21:21.569Z,99601.00
2023-01-28T19:23:50.535Z,99596.94
2023-01-28T19:26:21.356Z,99605.22
2023-01-28T19:28:52.376Z,99602.84
2023-01-28T19:31:20.993Z,99603.66
2023-01-28T19:33:56.185Z,99602.13
2023-01-28T19:36:25.931Z,99601.59
2023-01-28T19:38:54.045Z,99604.91
2023-01-28T19:41:22.117Z,99593.03
2023-01-28T19:43:50.284Z,99597.91
2023-01-28T19:46:18.551Z,99599.97
2023-01-28T19:48:46.622Z,99595.09
2023-01-28T19:51:16.513Z,99589.84
2023-01-28T19:53:45.502Z,99596.25
2023-01-28T19:56:18.414Z,99601.88
2023-01-28T19:58:47.024Z,99605.78
2023-01-28T20:01:16.595Z,99598.22
2023-01-28T20:03:45.662Z,99571.47
2023-01-28T20:06:15.274Z,99606.63
2023-01-28T20:08:45.509Z,99599.59
2023-01-28T20:11:14.907Z,99599.66
2023-01-28T20:13:44.110Z,99612.22
2023-01-28T20:16:14.247Z,99630.13
2023-01-28T20:18:42.303Z,99635.47
2023-01-28T20:21:10.406Z,99638.88
2023-01-28T20:23:38.517Z,99635.97
2023-01-28T20:26:07.947Z,99651.75
2023-01-28T20:28:36.041Z,99651.19
2023-01-28T20:31:05.464Z,99648.66
2023-01-28T20:33:33.745Z,99654.91
2023-01-28T20:36:02.648Z,99652.84
2023-01-28T20:38:31.279Z,99670.31
2023-01-28T20:40:59.449Z,99668.63
2023-01-28T20:43:28.840Z,99668.09
2023-01-28T20:46:03.137Z,99659.34
2023-01-28T20:48:31.259Z,99654.06
2023-01-28T20:51:04.942Z,99660.81
2023-01-28T20:53:33.154Z,99661.59
2023-01-28T20:56:01.260Z,99669.25
2023-01-28T20:58:30.817Z,99672.47
2023-01-28T21:00:59.091Z,99671.91
2023-01-28T21:03:27.403Z,99669.66
2023-01-28T21:05:55.545Z,99664.66
2023-01-28T21:08:23.610Z,99660.72
2023-01-28T21:10:51.647Z,99662.25
2023-01-28T21:13:19.734Z,99667.66
2023-01-28T21:15:55.947Z,99681.25
2023-01-28T21:18:24.601Z,99687.66
2023-01-28T21:20:53.703Z,99685.47
2023-01-28T21:23:23.960Z,99675.38
2023-01-28T21:25:52.425Z,99683.44
2023-01-28T21:28:20.886Z,99680.16
2023-01-28T21:30:49.044Z,99679.44
2023-01-28T21:33:18.579Z,99667.44
2023-01-28T21:35:46.923Z,99661.91
2023-01-28T21:38:17.646Z,99653.94
2023-01-28T21:40:47.949Z,99663.16
2023-01-28T21:43:15.978Z,99659.34
2023-01-28T21:45:47.618Z,99666.91
2023-01-28T21:48:15.772Z,99671.56
2023-01-28T21:50:59.100Z,99675.00
2023-01-28T21:53:27.274Z,99674.41
2023-01-28T21:55:55.527Z,99673.38
2023-01-28T21:58:43.723Z,99679.88
2023-01-28T22:02:37.145Z,99668.44
2023-01-28T22:05:05.801Z,99680.88
2023-01-28T22:07:33.958Z,99683.53
2023-01-28T22:10:02.346Z,99685.47
2023-01-28T22:12:30.459Z,99681.97
2023-01-28T22:15:00.532Z,99677.16
2023-01-28T22:17:28.873Z,99675.34
2023-01-28T22:19:58.262Z,99675.69
2023-01-28T22:22:26.342Z,99680.44
2023-01-28T22:24:54.452Z,99683.13
2023-01-28T22:27:22.477Z,99678.28
2023-01-28T22:29:53.804Z,99678.75
2023-01-28T22:32:22.545Z,99681.91
2023-01-28T22:34:50.653Z,99680.94
2023-01-28T22:37:20.145Z,99676.72
2023-01-28T22:39:48.195Z,99677.38
2023-01-28T22:42:16.199Z,99682.50
2023-01-28T22:44:44.192Z,99666.75
2023-01-28T22:47:12.335Z,99671.81
2023-01-28T22:49:42.986Z,99672.25
2023-01-28T22:52:10.999Z,99676.47
2023-01-28T22:54:40.555Z,99678.66
2023-01-28T22:57:08.698Z,99669.41
2023-01-28T22:59:36.868Z,99666.03
2023-01-28T23:02:05.230Z,99669.00
2023-01-28T23:04:33.235Z,99678.66
2023-01-28T23:07:01.250Z,99667.28
2023-01-28T23:09:29.374Z,99664.53
2023-01-28T23:11:59.000Z,99661.97
2023-01-28T23:14:44.351Z,99666.22
2023-01-28T23:17:29.935Z,99664.03
2023-01-28T23:20:15.847Z,99662.03
2023-01-28T23:23:01.546Z,99657.94
2023-01-28T23:25:29.590Z,99652.69
2023-01-28T23:27:59.034Z,99655.94
2023-01-28T23:30:27.155Z,99659.13
2023-01-28T23:32:56.925Z,99623.94
2023-01-28T23:35:25.830Z,99667.28
2023-01-28T23:37:54.298Z,99652.56
2023-01-28T23:40:24.441Z,99644.78
2023-01-28T23:42:52.579Z,99651.22
2023-01-28T23:45:22.230Z,99655.34
2023-01-28T23:47:50.340Z,99648.69
2023-01-28T23:50:19.136Z,99655.69
2023-01-28T23:52:47.458Z,99659.94
2023-01-28T23:55:17.904Z,99654.00
2023-01-28T23:57:48.326Z,99654.00
